sensor_id;sensor_type;location;lat;lon;timestamp;pressure;altitude;pressure_sealevel;temperature;humidity
30967;BME280;17649;51.836;8.330;2022-07-06T00:02:13;101775.34;;;15.84;100.00
30967;BME280;17649;51.836;8.330;2022-07-06T00:05:15;101776.63;;;15.77;100.00
30967;BME280;17649;51.836;8.330;2022-07-06T00:08:16;101780.81;;;15.65;100.00
30967;BME280;17649;51.836;8.330;2022-07-06T00:11:17;101779.88;;;15.66;100.00
30967;BME280;17649;51.836;8.330;2022-07-06T00:14:18;101778.28;;;15.64;100.00
30967;BME280;17649;51.836;8.330;2022-07-06T00:17:19;101787.22;;;15.60;100.00
30967;BME280;17649;51.836;8.330;2022-07-06T00:20:19;101792.09;;;15.50;100.00
30967;BME280;17649;51.836;8.330;2022-07-06T00:23:20;101787.03;;;15.47;100.00
30967;BME280;17649;51.836;8.330;2022-07-06T00:26:20;101789.34;;;15.37;100.00
30967;BME280;17649;51.836;8.330;2022-07-06T00:29:20;101786.06;;;15.34;100.00
30967;BME280;17649;51.836;8.330;2022-07-06T00:32:21;101785.28;;;15.32;100.00
30967;BME280;17649;51.836;8.330;2022-07-06T00:35:21;101793.47;;;15.26;100.00
30967;BME280;17649;51.836;8.330;2022-07-06T00:38:22;101789.19;;;15.25;100.00
30967;BME280;17649;51.836;8.330;2022-07-06T00:41:22;101797.09;;;15.23;100.00
30967;BME280;17649;51.836;8.330;2022-07-06T00:44:22;101798.25;;;15.17;100.00
30967;BME280;17649;51.836;8.330;2022-07-06T00:47:23;101798.78;;;15.08;100.00
30967;BME280;17649;51.836;8.330;2022-07-06T00:50:24;101801.66;;;15.04;100.00
30967;BME280;17649;51.836;8.330;2022-07-06T00:53:25;101807.84;;;15.01;100.00
30967;BME280;17649;51.836;8.330;2022-07-06T00:56:30;101804.59;;;15.13;100.00
30967;BME280;17649;51.836;8.330;2022-07-06T00:59:32;101807.19;;;15.13;100.00
30967;BME280;17649;51.836;8.330;2022-07-06T01:02:33;101807.53;;;15.07;100.00
30967;BME280;17649;51.836;8.330;2022-07-06T01:05:36;101805.03;;;15.06;100.00
30967;BME280;17649;51.836;8.330;2022-07-06T01:08:40;101813.06;;;15.01;100.00
30967;BME280;17649;51.836;8.330;2022-07-06T01:11:42;101806.34;;;14.97;100.00
30967;BME280;17649;51.836;8.330;2022-07-06T01:14:43;101802.25;;;14.93;100.00
30967;BME280;17649;51.836;8.330;2022-07-06T01:17:45;101806.34;;;14.97;100.00
30967;BME280;17649;51.836;8.330;2022-07-06T01:20:47;101797.13;;;14.91;100.00
30967;BME280;17649;51.836;8.330;2022-07-06T01:23:49;101805.59;;;14.95;100.00
30967;BME280;17649;51.836;8.330;2022-07-06T01:26:50;101805.25;;;15.01;100.00
30967;BME280;17649;51.836;8.330;2022-07-06T01:29:52;101802.91;;;14.97;100.00
30967;BME280;17649;51.836;8.330;2022-07-06T01:32:53;101803.91;;;14.94;100.00
30967;BME280;17649;51.836;8.330;2022-07-06T01:35:54;101797.88;;;15.09;100.00
30967;BME280;17649;51.836;8.330;2022-07-06T01:38:58;101801.78;;;15.16;100.00
30967;BME280;17649;51.836;8.330;2022-07-06T01:41:59;101793.84;;;15.19;100.00
30967;BME280;17649;51.836;8.330;2022-07-06T01:45:01;101791.63;;;15.28;100.00
30967;BME280;17649;51.836;8.330;2022-07-06T01:48:04;101788.84;;;15.31;100.00
30967;BME280;17649;51.836;8.330;2022-07-06T01:51:06;101784.53;;;15.30;100.00
30967;BME280;17649;51.836;8.330;2022-07-06T01:54:06;101782.22;;;15.25;100.00
30967;BME280;17649;51.836;8.330;2022-07-06T01:57:08;101783.63;;;15.31;100.00
30967;BME280;17649;51.836;8.330;2022-07-06T02:00:09;101794.22;;;15.28;100.00
30967;BME280;17649;51.836;8.330;2022-07-06T02:03:10;101803.41;;;15.19;100.00
30967;BME280;17649;51.836;8.330;2022-07-06T02:06:14;101806.25;;;15.14;100.00
30967;BME280;17649;51.836;8.330;2022-07-06T02:09:15;101805.09;;;15.20;100.00
30967;BME280;17649;51.836;8.330;2022-07-06T02:12:16;101806.50;;;15.26;100.00
30967;BME280;17649;51.836;8.330;2022-07-06T02:15:17;101815.16;;;15.26;100.00
30967;BME280;17649;51.836;8.330;2022-07-06T02:18:18;101804.94;;;15.07;100.00
30967;BME280;17649;51.836;8.330;2022-07-06T02:21:23;101800.81;;;15.19;100.00
30967;BME280;17649;51.836;8.330;2022-07-06T02:24:24;101805.41;;;15.14;100.00
30967;BME280;17649;51.836;8.330;2022-07-06T02:27:25;101800.13;;;15.00;100.00
30967;BME280;17649;51.836;8.330;2022-07-06T02:30:30;101809.63;;;15.01;100.00
30967;BME280;17649;51.836;8.330;2022-07-06T02:33:33;101809.97;;;14.95;100.00
30967;BME280;17649;51.836;8.330;2022-07-06T02:36:34;101812.09;;;14.88;100.00
30967;BME280;17649;51.836;8.330;2022-07-06T02:39:35;101811.56;;;14.97;100.00
30967;BME280;17649;51.836;8.330;2022-07-06T02:42:37;101810.97;;;14.92;100.00
30967;BME280;17649;51.836;8.330;2022-07-06T02:45:39;101813.25;;;14.98;100.00
30967;BME280;17649;51.836;8.330;2022-07-06T02:48:41;101815.69;;;15.01;100.00
30967;BME280;17649;51.836;8.330;2022-07-06T02:51:42;101807.72;;;14.88;100.00
30967;BME280;17649;51.836;8.330;2022-07-06T02:54:43;101809.63;;;15.01;100.00
30967;BME280;17649;51.836;8.330;2022-07-06T02:57:53;101803.34;;;15.05;100.00
30967;BME280;17649;51.836;8.330;2022-07-06T03:00:54;101793.56;;;15.08;100.00
30967;BME280;17649;51.836;8.330;2022-07-06T03:03:56;101797.13;;;15.07;100.00
30967;BME280;17649;51.836;8.330;2022-07-06T03:06:57;101795.25;;;14.94;100.00
30967;BME280;17649;51.836;8.330;2022-07-06T03:09:59;101798.44;;;14.83;100.00
30967;BME280;17649;51.836;8.330;2022-07-06T03:13:00;101806.09;;;14.86;100.00
30967;BME280;17649;51.836;8.330;2022-07-06T03:16:02;101815.94;;;14.81;100.00
30967;BME280;17649;51.836;8.330;2022-07-06T03:19:03;101816.50;;;14.70;100.00
30967;BME280;17649;51.836;8.330;2022-07-06T03:22:04;101825.00;;;14.74;100.00
30967;BME280;17649;51.836;8.330;2022-07-06T03:25:08;101830.41;;;14.53;100.00
30967;BME280;17649;51.836;8.330;2022-07-06T03:28:09;101836.25;;;14.58;100.00
30967;BME280;17649;51.836;8.330;2022-07-06T03:31:11;101838.31;;;14.52;100.00
30967;BME280;17649;51.836;8.330;2022-07-06T03:34:15;101843.75;;;14.47;100.00
30967;BME280;17649;51.836;8.330;2022-07-06T03:37:19;101849.91;;;14.46;100.00
30967;BME280;17649;51.836;8.330;2022-07-06T03:40:21;101849.91;;;14.46;100.00
30967;BME280;17649;51.836;8.330;2022-07-06T03:43:22;101837.78;;;14.28;100.00
30967;BME280;17649;51.836;8.330;2022-07-06T03:46:26;101830.88;;;14.27;100.00
30967;BME280;17649;51.836;8.330;2022-07-06T03:49:28;101840.38;;;14.28;100.00
30967;BME280;17649;51.836;8.330;2022-07-06T03:52:29;101835.50;;;14.05;100.00
30967;BME280;17649;51.836;8.330;2022-07-06T03:55:30;101842.00;;;13.96;100.00
30967;BME280;17649;51.836;8.330;2022-07-06T03:58:40;101848.59;;;14.03;100.00
30967;BME280;17649;51.836;8.330;2022-07-06T04:02:08;101846.28;;;13.97;100.00
30967;BME280;17649;51.836;8.330;2022-07-06T04:05:10;101854.41;;;13.91;100.00
30967;BME280;17649;51.836;8.330;2022-07-06T04:08:11;101855.41;;;13.88;100.00
30967;BME280;17649;51.836;8.330;2022-07-06T04:11:13;101850.34;;;13.85;100.00
30967;BME280;17649;51.836;8.330;2022-07-06T04:14:29;101849.66;;;13.82;100.00
30967;BME280;17649;51.836;8.330;2022-07-06T04:17:33;101853.03;;;13.84;100.00
30967;BME280;17649;51.836;8.330;2022-07-06T04:20:52;101853.16;;;13.81;100.00
30967;BME280;17649;51.836;8.330;2022-07-06T04:23:53;101860.94;;;13.99;100.00
30967;BME280;17649;51.836;8.330;2022-07-06T04:26:54;101862.69;;;13.99;100.00
30967;BME280;17649;51.836;8.330;2022-07-06T04:29:58;101851.03;;;14.23;100.00
30967;BME280;17649;51.836;8.330;2022-07-06T04:32:59;101859.75;;;14.40;100.00
30967;BME280;17649;51.836;8.330;2022-07-06T04:36:01;101852.16;;;14.52;100.00
30967;BME280;17649;51.836;8.330;2022-07-06T04:39:17;101854.19;;;14.30;100.00
30967;BME280;17649;51.836;8.330;2022-07-06T04:42:19;101852.84;;;14.56;100.00
30967;BME280;17649;51.836;8.330;2022-07-06T04:45:20;101847.50;;;14.59;100.00
30967;BME280;17649;51.836;8.330;2022-07-06T04:48:22;101845.31;;;14.67;100.00
30967;BME280;17649;51.836;8.330;2022-07-06T04:51:26;101842.16;;;14.78;100.00
30967;BME280;17649;51.836;8.330;2022-07-06T04:54:30;101846.53;;;14.77;100.00
30967;BME280;17649;51.836;8.330;2022-07-06T04:57:32;101845.16;;;14.86;100.00
30967;BME280;17649;51.836;8.330;2022-07-06T05:00:33;101854.44;;;14.91;100.00
30967;BME280;17649;51.836;8.330;2022-07-06T05:03:35;101854.00;;;14.83;100.00
30967;BME280;17649;51.836;8.330;2022-07-06T05:06:41;101847.25;;;14.64;100.00
30967;BME280;17649;51.836;8.330;2022-07-06T05:09:46;101846.00;;;14.71;100.00
30967;BME280;17649;51.836;8.330;2022-07-06T05:12:47;101847.03;;;14.84;100.00
30967;BME280;17649;51.836;8.330;2022-07-06T05:15:51;101843.63;;;14.66;100.00
30967;BME280;17649;51.836;8.330;2022-07-06T05:18:53;101848.75;;;14.68;100.00
30967;BME280;17649;51.836;8.330;2022-07-06T05:21:54;101850.03;;;14.60;100.00
30967;BME280;17649;51.836;8.330;2022-07-06T05:24:55;101853.31;;;14.64;100.00
30967;BME280;17649;51.836;8.330;2022-07-06T05:28:00;101853.84;;;14.86;100.00
30967;BME280;17649;51.836;8.330;2022-07-06T05:31:02;101855.38;;;14.90;100.00
30967;BME280;17649;51.836;8.330;2022-07-06T05:34:06;101859.00;;;14.88;100.00
30967;BME280;17649;51.836;8.330;2022-07-06T05:37:07;101854.41;;;14.76;100.00
30967;BME280;17649;51.836;8.330;2022-07-06T05:40:09;101862.69;;;15.00;100.00
30967;BME280;17649;51.836;8.330;2022-07-06T05:43:10;101855.75;;;14.83;100.00
30967;BME280;17649;51.836;8.330;2022-07-06T05:46:18;101854.84;;;14.84;100.00
30967;BME280;17649;51.836;8.330;2022-07-06T05:49:19;101857.41;;;14.68;100.00
30967;BME280;17649;51.836;8.330;2022-07-06T05:52:40;101860.88;;;14.69;100.00
30967;BME280;17649;51.836;8.330;2022-07-06T05:55:45;101862.31;;;14.74;100.00
30967;BME280;17649;51.836;8.330;2022-07-06T05:58:47;101862.91;;;14.79;100.00
30967;BME280;17649;51.836;8.330;2022-07-06T06:01:56;101871.66;;;14.78;100.00
30967;BME280;17649;51.836;8.330;2022-07-06T06:05:01;101864.97;;;14.73;100.00
30967;BME280;17649;51.836;8.330;2022-07-06T06:08:02;101874.69;;;14.86;100.00
30967;BME280;17649;51.836;8.330;2022-07-06T06:11:04;101871.50;;;14.97;100.00
30967;BME280;17649;51.836;8.330;2022-07-06T06:14:07;101867.41;;;15.25;100.00
30967;BME280;17649;51.836;8.330;2022-07-06T06:17:09;101868.66;;;15.49;100.00
30967;BME280;17649;51.836;8.330;2022-07-06T06:20:11;101868.84;;;15.77;100.00
30967;BME280;17649;51.836;8.330;2022-07-06T06:23:13;101867.09;;;16.22;100.00
30967;BME280;17649;51.836;8.330;2022-07-06T06:26:15;101877.25;;;16.71;100.00
30967;BME280;17649;51.836;8.330;2022-07-06T06:29:21;101878.44;;;16.94;100.00
30967;BME280;17649;51.836;8.330;2022-07-06T06:32:22;101876.59;;;16.82;100.00
30967;BME280;17649;51.836;8.330;2022-07-06T06:35:32;101879.47;;;16.91;100.00
30967;BME280;17649;51.836;8.330;2022-07-06T06:38:37;101880.47;;;17.17;100.00
30967;BME280;17649;51.836;8.330;2022-07-06T06:41:57;101881.59;;;17.40;100.00
30967;BME280;17649;51.836;8.330;2022-07-06T06:44:58;101880.22;;;17.35;100.00
30967;BME280;17649;51.836;8.330;2022-07-06T06:48:03;101878.25;;;17.65;100.00
30967;BME280;17649;51.836;8.330;2022-07-06T06:51:04;101887.47;;;17.58;100.00
30967;BME280;17649;51.836;8.330;2022-07-06T06:54:05;101889.16;;;17.18;100.00
30967;BME280;17649;51.836;8.330;2022-07-06T06:57:06;101882.69;;;17.09;100.00
30967;BME280;17649;51.836;8.330;2022-07-06T07:00:07;101893.66;;;17.02;100.00
30967;BME280;17649;51.836;8.330;2022-07-06T07:03:08;101888.94;;;17.62;100.00
30967;BME280;17649;51.836;8.330;2022-07-06T07:06:10;101893.69;;;17.70;100.00
30967;BME280;17649;51.836;8.330;2022-07-06T07:09:10;101882.91;;;18.01;100.00
30967;BME280;17649;51.836;8.330;2022-07-06T07:12:10;101892.22;;;18.05;100.00
30967;BME280;17649;51.836;8.330;2022-07-06T07:15:12;101884.28;;;18.58;100.00
30967;BME280;17649;51.836;8.330;2022-07-06T07:18:12;101891.44;;;18.94;100.00
30967;BME280;17649;51.836;8.330;2022-07-06T07:21:18;101883.72;;;19.16;100.00
30967;BME280;17649;51.836;8.330;2022-07-06T07:24:19;101882.38;;;19.11;100.00
30967;BME280;17649;51.836;8.330;2022-07-06T07:27:26;101883.47;;;19.32;100.00
30967;BME280;17649;51.836;8.330;2022-07-06T07:33:50;101885.19;;;19.81;100.00
30967;BME280;17649;51.836;8.330;2022-07-06T07:36:54;101887.88;;;19.68;100.00
30967;BME280;17649;51.836;8.330;2022-07-06T07:39:55;101891.81;;;19.50;100.00
30967;BME280;17649;51.836;8.330;2022-07-06T07:42:57;101890.47;;;19.08;100.00
30967;BME280;17649;51.836;8.330;2022-07-06T07:46:04;101900.00;;;19.21;100.00
30967;BME280;17649;51.836;8.330;2022-07-06T07:49:05;101900.50;;;19.26;100.00
30967;BME280;17649;51.836;8.330;2022-07-06T07:52:06;101894.63;;;19.23;100.00
30967;BME280;17649;51.836;8.330;2022-07-06T07:55:08;101891.72;;;19.75;100.00
30967;BME280;17649;51.836;8.330;2022-07-06T07:58:10;101897.25;;;19.83;100.00
30967;BME280;17649;51.836;8.330;2022-07-06T08:01:12;101896.38;;;20.18;100.00
30967;BME280;17649;51.836;8.330;2022-07-06T08:04:22;101896.88;;;20.23;100.00
30967;BME280;17649;51.836;8.330;2022-07-06T08:07:23;101889.47;;;20.17;100.00
30967;BME280;17649;51.836;8.330;2022-07-06T08:10:27;101888.56;;;20.40;100.00
30967;BME280;17649;51.836;8.330;2022-07-06T08:13:28;101881.22;;;20.57;100.00
30967;BME280;17649;51.836;8.330;2022-07-06T08:16:41;101876.53;;;21.05;100.00
30967;BME280;17649;51.836;8.330;2022-07-06T08:19:45;101879.59;;;21.21;100.00
30967;BME280;17649;51.836;8.330;2022-07-06T08:22:46;101880.13;;;20.59;100.00
30967;BME280;17649;51.836;8.330;2022-07-06T08:25:47;101879.81;;;19.82;100.00
30967;BME280;17649;51.836;8.330;2022-07-06T08:28:49;101885.72;;;19.13;100.00
30967;BME280;17649;51.836;8.330;2022-07-06T08:31:53;101892.84;;;19.84;100.00
30967;BME280;17649;51.836;8.330;2022-07-06T08:34:55;101881.69;;;20.15;100.00
30967;BME280;17649;51.836;8.330;2022-07-06T08:37:56;101875.47;;;20.05;100.00
30967;BME280;17649;51.836;8.330;2022-07-06T08:40:57;101870.50;;;20.36;100.00
30967;BME280;17649;51.836;8.330;2022-07-06T08:44:08;101877.66;;;20.34;100.00
30967;BME280;17649;51.836;8.330;2022-07-06T08:47:12;101875.47;;;19.33;100.00
30967;BME280;17649;51.836;8.330;2022-07-06T08:50:14;101870.50;;;19.89;100.00
30967;BME280;17649;51.836;8.330;2022-07-06T08:53:17;101871.41;;;19.66;100.00
30967;BME280;17649;51.836;8.330;2022-07-06T08:56:21;101868.13;;;19.02;100.00
30967;BME280;17649;51.836;8.330;2022-07-06T08:59:22;101876.22;;;18.23;100.00
30967;BME280;17649;51.836;8.330;2022-07-06T09:02:24;101882.38;;;18.09;100.00
30967;BME280;17649;51.836;8.330;2022-07-06T09:05:27;101876.06;;;17.86;100.00
30967;BME280;17649;51.836;8.330;2022-07-06T09:08:30;101883.22;;;17.70;100.00
30967;BME280;17649;51.836;8.330;2022-07-06T09:11:40;101887.22;;;17.75;100.00
30967;BME280;17649;51.836;8.330;2022-07-06T09:14:48;101889.97;;;17.59;100.00
30967;BME280;17649;51.836;8.330;2022-07-06T09:17:52;101890.47;;;17.79;100.00
30967;BME280;17649;51.836;8.330;2022-07-06T09:20:56;101891.00;;;17.84;100.00
30967;BME280;17649;51.836;8.330;2022-07-06T09:23:57;101890.19;;;17.83;100.00
30967;BME280;17649;51.836;8.330;2022-07-06T09:26:59;101888.06;;;18.15;100.00
30967;BME280;17649;51.836;8.330;2022-07-06T09:30:00;101894.25;;;17.75;100.00
30967;BME280;17649;51.836;8.330;2022-07-06T09:33:02;101887.66;;;18.34;100.00
30967;BME280;17649;51.836;8.330;2022-07-06T09:36:06;101879.81;;;18.72;100.00
30967;BME280;17649;51.836;8.330;2022-07-06T09:39:19;101882.16;;;18.64;100.00
30967;BME280;17649;51.836;8.330;2022-07-06T09:42:24;101887.44;;;19.01;100.00
30967;BME280;17649;51.836;8.330;2022-07-06T09:45:27;101882.75;;;19.54;100.00
30967;BME280;17649;51.836;8.330;2022-07-06T09:48:28;101881.25;;;19.39;100.00
30967;BME280;17649;51.836;8.330;2022-07-06T09:51:31;101870.69;;;19.99;100.00
30967;BME280;17649;51.836;8.330;2022-07-06T09:54:33;101873.97;;;19.90;100.00
30967;BME280;17649;51.836;8.330;2022-07-06T09:57:35;101868.09;;;20.33;100.00
30967;BME280;17649;51.836;8.330;2022-07-06T10:00:35;101864.94;;;20.85;100.00
30967;BME280;17649;51.836;8.330;2022-07-06T10:03:35;101860.16;;;20.57;100.00
30967;BME280;17649;51.836;8.330;2022-07-06T10:06:36;101856.53;;;19.89;100.00
30967;BME280;17649;51.836;8.330;2022-07-06T10:09:37;101856.28;;;19.81;100.00
30967;BME280;17649;51.836;8.330;2022-07-06T10:12:42;101862.81;;;19.51;100.00
30967;BME280;17649;51.836;8.330;2022-07-06T10:15:48;101866.69;;;18.72;100.00
30967;BME280;17649;51.836;8.330;2022-07-06T10:18:53;101863.56;;;18.67;100.00
30967;BME280;17649;51.836;8.330;2022-07-06T10:21:54;101866.19;;;18.67;100.00
30967;BME280;17649;51.836;8.330;2022-07-06T10:24:56;101870.00;;;19.13;100.00
30967;BME280;17649;51.836;8.330;2022-07-06T10:27:59;101871.19;;;19.32;100.00
30967;BME280;17649;51.836;8.330;2022-07-06T10:31:04;101867.00;;;19.54;100.00
30967;BME280;17649;51.836;8.330;2022-07-06T10:34:06;101868.84;;;19.41;100.00
30967;BME280;17649;51.836;8.330;2022-07-06T10:37:20;101867.63;;;19.81;100.00
30967;BME280;17649;51.836;8.330;2022-07-06T10:40:31;101863.50;;;20.59;100.00
30967;BME280;17649;51.836;8.330;2022-07-06T10:43:50;101857.22;;;21.27;100.00
30967;BME280;17649;51.836;8.330;2022-07-06T10:46:52;101846.53;;;20.74;100.00
30967;BME280;17649;51.836;8.330;2022-07-06T10:49:59;101858.53;;;21.21;100.00
30967;BME280;17649;51.836;8.330;2022-07-06T10:53:03;101863.50;;;21.58;94.80
30967;BME280;17649;51.836;8.330;2022-07-06T10:56:10;101864.44;;;21.57;84.51
30967;BME280;17649;51.836;8.330;2022-07-06T10:59:12;101851.78;;;22.24;89.34
30967;BME280;17649;51.836;8.330;2022-07-06T11:02:17;101841.25;;;22.85;83.32
30967;BME280;17649;51.836;8.330;2022-07-06T11:08:41;101843.19;;;22.22;78.48
30967;BME280;17649;51.836;8.330;2022-07-06T11:11:55;101842.44;;;22.41;82.42
30967;BME280;17649;51.836;8.330;2022-07-06T11:14:57;101842.28;;;22.12;83.14
30967;BME280;17649;51.836;8.330;2022-07-06T11:18:13;101842.38;;;20.71;91.52
30967;BME280;17649;51.836;8.330;2022-07-06T11:21:35;101837.56;;;20.88;100.00
30967;BME280;17649;51.836;8.330;2022-07-06T11:35:23;101836.66;;;21.64;90.43
30967;BME280;17649;51.836;8.330;2022-07-06T11:38:35;101839.38;;;22.36;86.22
30967;BME280;17649;51.836;8.330;2022-07-06T11:41:49;101828.00;;;23.74;71.97
30967;BME280;17649;51.836;8.330;2022-07-06T11:48:14;101825.47;;;23.92;59.98
30967;BME280;17649;51.836;8.330;2022-07-06T11:51:20;101828.94;;;24.12;68.39
30967;BME280;17649;51.836;8.330;2022-07-06T11:57:45;101818.22;;;24.78;58.02
30967;BME280;17649;51.836;8.330;2022-07-06T12:12:32;101799.97;;;25.73;50.57
30967;BME280;17649;51.836;8.330;2022-07-06T12:16:06;101800.97;;;27.17;42.94
30967;BME280;17649;51.836;8.330;2022-07-06T12:27:24;101795.75;;;25.09;53.86
30967;BME280;17649;51.836;8.330;2022-07-06T12:49:21;101767.53;;;26.90;40.61
30967;BME280;17649;51.836;8.330;2022-07-06T12:52:46;101760.13;;;27.10;43.11
30967;BME280;17649;51.836;8.330;2022-07-06T12:56:07;101763.75;;;26.42;41.71
30967;BME280;17649;51.836;8.330;2022-07-06T12:59:21;101752.25;;;25.99;42.46
30967;BME280;17649;51.836;8.330;2022-07-06T13:02:37;101754.06;;;25.99;45.48
30967;BME280;17649;51.836;8.330;2022-07-06T13:06:09;101755.69;;;25.92;43.46
30967;BME280;17649;51.836;8.330;2022-07-06T13:09:37;101758.03;;;24.97;48.61
30967;BME280;17649;51.836;8.330;2022-07-06T13:40:23;101734.19;;;25.07;50.46
30967;BME280;17649;51.836;8.330;2022-07-06T13:47:36;101736.78;;;26.71;41.74
30967;BME280;17649;51.836;8.330;2022-07-06T13:50:51;101728.22;;;27.34;38.71
30967;BME280;17649;51.836;8.330;2022-07-06T13:54:13;101705.00;;;29.68;34.28
30967;BME280;17649;51.836;8.330;2022-07-06T14:01:35;101718.44;;;28.76;33.93
30967;BME280;17649;51.836;8.330;2022-07-06T14:04:57;101714.94;;;28.14;36.23
30967;BME280;17649;51.836;8.330;2022-07-06T14:08:20;101712.25;;;27.50;37.26
30967;BME280;17649;51.836;8.330;2022-07-06T14:11:45;101716.84;;;27.89;38.36
30967;BME280;17649;51.836;8.330;2022-07-06T14:14:46;101714.28;;;28.51;36.34
30967;BME280;17649;51.836;8.330;2022-07-06T14:17:47;101719.34;;;26.18;39.58
30967;BME280;17649;51.836;8.330;2022-07-06T14:20:52;101718.06;;;25.62;41.51
30967;BME280;17649;51.836;8.330;2022-07-06T14:23:54;101714.50;;;26.05;40.64
30967;BME280;17649;51.836;8.330;2022-07-06T14:27:09;101712.50;;;25.73;42.00
30967;BME280;17649;51.836;8.330;2022-07-06T14:30:18;101713.75;;;24.54;44.72
30967;BME280;17649;51.836;8.330;2022-07-06T14:33:20;101711.53;;;24.95;46.20
30967;BME280;17649;51.836;8.330;2022-07-06T14:36:21;101710.44;;;25.15;44.52
30967;BME280;17649;51.836;8.330;2022-07-06T14:39:26;101697.38;;;27.97;37.96
30967;BME280;17649;51.836;8.330;2022-07-06T14:42:27;101676.38;;;31.90;32.08
30967;BME280;17649;51.836;8.330;2022-07-06T14:45:27;101671.88;;;34.09;28.83
30967;BME280;17649;51.836;8.330;2022-07-06T14:48:28;101683.94;;;29.73;32.19
30967;BME280;17649;51.836;8.330;2022-07-06T14:51:29;101691.69;;;27.36;37.24
30967;BME280;17649;51.836;8.330;2022-07-06T14:54:34;101698.47;;;25.11;41.88
30967;BME280;17649;51.836;8.330;2022-07-06T14:57:45;101705.28;;;23.96;46.42
30967;BME280;17649;51.836;8.330;2022-07-06T15:00:46;101695.06;;;24.38;48.19
30967;BME280;17649;51.836;8.330;2022-07-06T15:03:50;101695.13;;;24.56;47.37
30967;BME280;17649;51.836;8.330;2022-07-06T15:06:51;101679.75;;;24.42;47.66
30967;BME280;17649;51.836;8.330;2022-07-06T15:09:53;101686.19;;;24.75;46.89
30967;BME280;17649;51.836;8.330;2022-07-06T15:12:55;101687.59;;;24.51;53.74
30967;BME280;17649;51.836;8.330;2022-07-06T15:15:57;101684.53;;;24.91;48.47
30967;BME280;17649;51.836;8.330;2022-07-06T15:18:59;101688.75;;;24.84;49.25
30967;BME280;17649;51.836;8.330;2022-07-06T15:22:00;101682.72;;;23.35;51.65
30967;BME280;17649;51.836;8.330;2022-07-06T15:25:06;101680.66;;;23.39;56.09
30967;BME280;17649;51.836;8.330;2022-07-06T15:28:13;101673.59;;;23.01;58.52
30967;BME280;17649;51.836;8.330;2022-07-06T15:31:16;101666.38;;;23.22;60.70
30967;BME280;17649;51.836;8.330;2022-07-06T15:34:21;101664.75;;;24.32;54.68
30967;BME280;17649;51.836;8.330;2022-07-06T15:37:34;101654.53;;;25.26;49.66
30967;BME280;17649;51.836;8.330;2022-07-06T15:40:42;101660.34;;;24.86;49.64
30967;BME280;17649;51.836;8.330;2022-07-06T15:43:48;101657.50;;;25.23;48.73
30967;BME280;17649;51.836;8.330;2022-07-06T15:46:49;101647.22;;;25.20;48.75
30967;BME280;17649;51.836;8.330;2022-07-06T15:49:50;101656.31;;;24.82;50.79
30967;BME280;17649;51.836;8.330;2022-07-06T15:56:22;101651.00;;;24.01;55.97
30967;BME280;17649;51.836;8.330;2022-07-06T15:59:24;101653.00;;;23.33;59.34
30967;BME280;17649;51.836;8.330;2022-07-06T16:02:26;101645.28;;;24.33;55.43
30967;BME280;17649;51.836;8.330;2022-07-06T16:05:27;101651.50;;;24.42;51.89
30967;BME280;17649;51.836;8.330;2022-07-06T16:08:44;101644.75;;;24.65;57.65
30967;BME280;17649;51.836;8.330;2022-07-06T16:11:46;101639.53;;;23.36;56.39
30967;BME280;17649;51.836;8.330;2022-07-06T16:14:52;101635.72;;;23.68;64.22
30967;BME280;17649;51.836;8.330;2022-07-06T16:17:53;101639.31;;;23.01;66.33
30967;BME280;17649;51.836;8.330;2022-07-06T16:20:58;101633.34;;;24.20;58.36
30967;BME280;17649;51.836;8.330;2022-07-06T16:24:03;101630.56;;;24.21;56.41
30967;BME280;17649;51.836;8.330;2022-07-06T16:27:04;101617.31;;;24.31;61.46
30967;BME280;17649;51.836;8.330;2022-07-06T16:30:10;101604.13;;;26.12;47.91
30967;BME280;17649;51.836;8.330;2022-07-06T16:33:20;101616.00;;;26.99;43.15
30967;BME280;17649;51.836;8.330;2022-07-06T16:36:23;101612.31;;;27.41;42.75
30967;BME280;17649;51.836;8.330;2022-07-06T16:39:30;101600.47;;;27.99;40.18
30967;BME280;17649;51.836;8.330;2022-07-06T16:42:36;101604.59;;;26.00;43.63
30967;BME280;17649;51.836;8.330;2022-07-06T16:45:59;101602.78;;;25.32;46.44
30967;BME280;17649;51.836;8.330;2022-07-06T16:48:58;101590.69;;;23.87;53.03
30967;BME280;17649;51.836;8.330;2022-07-06T16:51:59;101594.06;;;23.79;56.10
30967;BME280;17649;51.836;8.330;2022-07-06T16:55:00;101586.28;;;26.63;49.28
30967;BME280;17649;51.836;8.330;2022-07-06T16:58:01;101574.94;;;27.82;41.27
30967;BME280;17649;51.836;8.330;2022-07-06T17:04:29;101581.34;;;24.99;47.37
30967;BME280;17649;51.836;8.330;2022-07-06T17:07:35;101584.03;;;24.11;61.13
30967;BME280;17649;51.836;8.330;2022-07-06T17:10:37;101586.72;;;24.01;58.74
30967;BME280;17649;51.836;8.330;2022-07-06T17:13:42;101577.47;;;23.50;57.46
30967;BME280;17649;51.836;8.330;2022-07-06T17:16:48;101578.59;;;23.47;64.43
30967;BME280;17649;51.836;8.330;2022-07-06T17:19:49;101576.41;;;22.96;65.10
30967;BME280;17649;51.836;8.330;2022-07-06T17:22:50;101575.13;;;22.90;68.26
30967;BME280;17649;51.836;8.330;2022-07-06T17:25:51;101577.00;;;23.37;66.88
30967;BME280;17649;51.836;8.330;2022-07-06T17:28:57;101567.19;;;23.47;60.72
30967;BME280;17649;51.836;8.330;2022-07-06T17:32:03;101575.66;;;23.23;63.36
30967;BME280;17649;51.836;8.330;2022-07-06T17:35:05;101585.72;;;22.02;70.47
30967;BME280;17649;51.836;8.330;2022-07-06T17:38:09;101581.34;;;21.72;79.50
30967;BME280;17649;51.836;8.330;2022-07-06T17:41:25;101582.72;;;21.66;79.63